Time;durP1;ratioP1;P1;durP2;ratioP2;P2;SDS_P1;SDS_P2;PMS_P1;PMS_P2;Temp;Humidity;BMP_temperature;BMP_pressure;BME280_temperature;BME280_humidity;BME280_pressure;Samples;Min_cycle;Max_cycle;Signal;HPM_P1;HPM_P2
2020/12/01 00:00:26;;;;;;;42.20;38.33;;;2.90;82.20;;;;;;4965720;28;20200;-75
2020/12/01 00:02:54;;;;;;;42.38;38.40;;;3.00;81.90;;;;;;4962458;28;20204;-76
2020/12/01 00:05:22;;;;;;;41.05;37.10;;;2.90;82.00;;;;;;4963724;28;20201;-76
2020/12/01 00:07:49;;;;;;;41.83;37.75;;;2.90;82.10;;;;;;4971246;28;20283;-75
2020/12/01 00:10:17;;;;;;;40.88;36.90;;;2.80;82.50;;;;;;4962950;28;20212;-77
2020/12/01 00:12:44;;;;;;;41.25;37.08;;;2.90;82.70;;;;;;4964808;28;20955;-78
2020/12/01 00:15:15;;;;;;;39.55;35.75;;;2.90;82.80;;;;;;4967874;28;20251;-78
2020/12/01 00:17:42;;;;;;;40.25;36.35;;;2.90;82.70;;;;;;4963690;28;20233;-77
2020/12/01 00:20:10;;;;;;;40.17;36.58;;;2.80;83.20;;;;;;4969075;28;20858;-75
2020/12/01 00:22:37;;;;;;;41.08;37.13;;;2.90;83.80;;;;;;4969840;28;20206;-75
2020/12/01 00:25:06;;;;;;;43.33;39.00;;;3.00;83.80;;;;;;4964867;28;20203;-76
2020/12/01 00:27:33;;;;;;;41.55;37.60;;;3.00;84.00;;;;;;4971694;28;20209;-75
2020/12/01 00:30:00;;;;;;;42.30;38.20;;;3.00;84.10;;;;;;4965933;28;20207;-75
2020/12/01 00:32:26;;;;;;;39.20;35.53;;;3.00;84.90;;;;;;4960816;28;20193;-75
2020/12/01 00:34:53;;;;;;;40.42;36.35;;;3.10;85.00;;;;;;4957534;28;20207;-74
2020/12/01 00:37:20;;;;;;;39.90;36.20;;;3.10;85.50;;;;;;4970679;28;20223;-75
2020/12/01 00:39:46;;;;;;;41.40;37.30;;;3.20;86.00;;;;;;4963049;28;20214;-75
2020/12/01 00:42:12;;;;;;;40.13;36.22;;;3.10;87.30;;;;;;4966833;28;20564;-75
2020/12/01 00:44:39;;;;;;;302.10;61.97;;;3.00;87.90;;;;;;4967359;28;20669;-75
2020/12/01 00:47:05;;;;;;;40.83;36.65;;;3.00;88.00;;;;;;4965694;28;20779;-75
2020/12/01 00:49:31;;;;;;;41.08;36.88;;;3.00;88.50;;;;;;4967949;28;20199;-75
2020/12/01 00:51:58;;;;;;;39.75;35.60;;;3.00;88.90;;;;;;4966027;28;20223;-75
2020/12/01 00:54:25;;;;;;;39.30;34.58;;;3.10;89.40;;;;;;4969229;28;20203;-75
2020/12/01 00:56:52;;;;;;;64.63;38.00;;;3.10;88.80;;;;;;4962210;28;20713;-75
2020/12/01 00:59:21;;;;;;;40.78;36.60;;;3.10;88.90;;;;;;4965584;28;20206;-75
2020/12/01 01:01:47;;;;;;;40.45;36.35;;;3.10;88.80;;;;;;4958190;28;20278;-75
2020/12/01 01:04:14;;;;;;;41.03;36.90;;;3.20;88.10;;;;;;4959761;28;20203;-75
2020/12/01 01:06:40;;;;;;;38.33;34.33;;;3.20;88.00;;;;;;4962891;28;20226;-75
2020/12/01 01:09:06;;;;;;;38.28;34.72;;;3.10;88.00;;;;;;4957413;28;20205;-75
2020/12/01 01:11:35;;;;;;;43.67;35.92;;;3.10;88.60;;;;;;4962930;28;20219;-75
2020/12/01 01:14:01;;;;;;;40.65;36.78;;;3.00;89.20;;;;;;4970635;28;20258;-75
2020/12/01 01:16:27;;;;;;;44.58;36.17;;;3.00;89.50;;;;;;4971277;28;20219;-74
2020/12/01 01:18:54;;;;;;;41.92;37.58;;;3.00;91.10;;;;;;4972299;28;20206;-75
2020/12/01 01:21:23;;;;;;;38.50;34.85;;;3.00;90.70;;;;;;4970647;28;20592;-75
2020/12/01 01:23:50;;;;;;;40.75;36.60;;;3.00;90.40;;;;;;4968369;28;20231;-75
2020/12/01 01:26:17;;;;;;;39.67;35.63;;;3.00;90.10;;;;;;4969837;28;20223;-75
2020/12/01 01:28:44;;;;;;;38.88;35.20;;;3.00;89.90;;;;;;4973094;28;20290;-75
2020/12/01 01:31:11;;;;;;;38.17;34.20;;;3.00;89.80;;;;;;4968861;28;20306;-75
2020/12/01 01:33:37;;;;;;;48.00;35.97;;;3.10;89.50;;;;;;4970133;28;20207;-75
2020/12/01 01:36:04;;;;;;;39.88;35.47;;;3.00;90.10;;;;;;4970566;28;20241;-77
2020/12/01 01:38:30;;;;;;;38.65;34.63;;;3.10;90.20;;;;;;4967464;28;20207;-75
2020/12/01 01:40:57;;;;;;;39.17;35.25;;;3.00;90.10;;;;;;4963752;28;20535;-75
2020/12/01 01:43:24;;;;;;;40.20;35.83;;;3.00;90.20;;;;;;4965712;28;20240;-75
2020/12/01 01:45:52;;;;;;;38.30;34.33;;;3.10;90.60;;;;;;4972724;28;20302;-75
2020/12/01 01:48:22;;;;;;;42.58;38.17;;;3.10;89.90;;;;;;4961336;28;20191;-75
2020/12/01 01:50:57;;;;;;;40.28;36.30;;;3.10;89.90;;;;;;4968565;28;20717;-75
2020/12/01 01:53:24;;;;;;;37.97;34.15;;;3.10;90.20;;;;;;4971290;28;20199;-75
2020/12/01 01:55:53;;;;;;;39.97;35.78;;;3.10;90.00;;;;;;4971034;28;20215;-75
2020/12/01 01:58:23;;;;;;;39.40;35.60;;;3.10;90.20;;;;;;4969846;28;20214;-75
2020/12/01 02:00:58;;;;;;;45.80;35.20;;;3.10;91.40;;;;;;4968369;28;20918;-75
2020/12/01 02:03:32;;;;;;;64.80;37.83;;;3.10;91.90;;;;;;4965857;28;20612;-75
2020/12/01 02:05:58;;;;;;;39.42;35.55;;;3.10;92.50;;;;;;4972551;28;20219;-75
2020/12/01 02:08:25;;;;;;;37.70;34.05;;;3.10;92.10;;;;;;4965373;28;20204;-75
2020/12/01 02:10:53;;;;;;;186.57;50.55;;;3.00;93.00;;;;;;4962777;28;20212;-75
2020/12/01 02:13:27;;;;;;;39.97;35.78;;;3.10;92.20;;;;;;4970470;28;20206;-75
2020/12/01 02:15:54;;;;;;;37.20;33.38;;;3.10;93.70;;;;;;4962971;28;20224;-75
2020/12/01 02:18:29;;;;;;;40.03;36.15;;;3.20;92.40;;;;;;4964552;28;20207;-75
2020/12/01 02:20:55;;;;;;;40.15;36.25;;;3.30;91.30;;;;;;4968838;28;20198;-75
2020/12/01 02:23:21;;;;;;;38.90;35.13;;;3.20;91.10;;;;;;4972217;28;20836;-75
2020/12/01 02:25:48;;;;;;;37.22;33.45;;;3.20;90.90;;;;;;4972269;28;20217;-75
2020/12/01 02:28:15;;;;;;;127.65;38.10;;;3.30;91.00;;;;;;4959754;28;20234;-75
2020/12/01 02:30:41;;;;;;;37.38;33.53;;;3.30;92.10;;;;;;4965262;28;20254;-75
2020/12/01 02:33:08;;;;;;;38.03;33.28;;;3.30;92.30;;;;;;4960757;28;20206;-75
2020/12/01 02:35:34;;;;;;;45.08;35.63;;;3.30;93.80;;;;;;4966447;28;20220;-75
2020/12/01 02:38:00;;;;;;;36.75;32.85;;;3.30;92.20;;;;;;4973059;28;20203;-75
2020/12/01 02:40:27;;;;;;;37.78;33.70;;;3.30;94.60;;;;;;4969061;28;20210;-75
2020/12/01 02:42:54;;;;;;;37.78;33.92;;;3.30;93.40;;;;;;4967316;28;20204;-76
2020/12/01 02:45:22;;;;;;;37.55;33.85;;;3.30;92.30;;;;;;4969802;28;20579;-77
2020/12/01 02:47:48;;;;;;;37.42;33.90;;;3.30;91.70;;;;;;4971675;28;20206;-76
2020/12/01 02:50:15;;;;;;;39.63;35.72;;;3.30;91.30;;;;;;4972031;28;20200;-75
2020/12/01 02:52:43;;;;;;;1567.20;252.80;;;3.30;90.90;;;;;;4961871;28;20211;-75
2020/12/01 02:55:09;;;;;;;1014.47;142.15;;;3.30;92.10;;;;;;4966157;28;20208;-75
2020/12/01 02:57:35;;;;;;;38.00;34.17;;;3.30;94.10;;;;;;4972722;28;20206;-76
2020/12/01 03:00:04;;;;;;;923.17;137.43;;;3.30;92.80;;;;;;4964077;28;20206;-75
2020/12/01 03:02:31;;;;;;;37.85;34.10;;;3.40;91.80;;;;;;4967478;28;20202;-76
2020/12/01 03:04:58;;;;;;;36.05;32.65;;;3.40;91.50;;;;;;4968987;28;20211;-76
2020/12/01 03:07:24;;;;;;;37.10;33.42;;;3.30;91.00;;;;;;4972496;28;20221;-76
2020/12/01 03:09:50;;;;;;;36.33;32.72;;;3.30;90.50;;;;;;4967849;28;20274;-75
2020/12/01 03:12:17;;;;;;;36.88;31.60;;;3.40;90.40;;;;;;4967027;28;20219;-75
2020/12/01 03:14:43;;;;;;;36.10;32.17;;;3.30;91.10;;;;;;4969369;28;20247;-75
2020/12/01 03:17:10;;;;;;;36.47;33.17;;;3.20;91.10;;;;;;4968138;28;20614;-75
2020/12/01 03:19:37;;;;;;;34.72;31.27;;;3.20;91.60;;;;;;4968144;28;20283;-75
2020/12/01 03:22:03;;;;;;;93.28;38.22;;;3.30;91.70;;;;;;4969657;28;20204;-75
2020/12/01 03:24:29;;;;;;;36.03;32.30;;;3.30;92.10;;;;;;4967804;28;20199;-75
2020/12/01 03:26:56;;;;;;;34.00;30.55;;;3.40;92.50;;;;;;4969450;28;20463;-75
2020/12/01 03:29:22;;;;;;;35.97;32.38;;;3.40;91.40;;;;;;4968040;28;20214;-76
2020/12/01 03:31:48;;;;;;;33.13;29.83;;;3.40;91.60;;;;;;4968533;28;20716;-76
2020/12/01 03:34:15;;;;;;;35.33;31.58;;;3.40;91.50;;;;;;4967270;28;20207;-75
2020/12/01 03:36:44;;;;;;;37.47;33.50;;;3.40;91.40;;;;;;4967910;28;20219;-76
2020/12/01 03:39:10;;;;;;;36.50;32.80;;;3.50;91.00;;;;;;4971622;28;20926;-79
2020/12/01 03:41:36;;;;;;;34.80;31.23;;;3.40;91.70;;;;;;4969465;28;20221;-77
2020/12/01 03:44:03;;;;;;;47.60;32.28;;;3.50;91.40;;;;;;4963254;28;20665;-77
2020/12/01 03:46:29;;;;;;;36.15;32.40;;;3.50;91.40;;;;;;4966035;28;20230;-76
2020/12/01 03:48:58;;;;;;;35.85;32.25;;;3.40;92.20;;;;;;4969316;28;20203;-75
2020/12/01 03:51:25;;;;;;;74.88;34.78;;;3.40;92.40;;;;;;4970085;28;20905;-75
2020/12/01 03:53:52;;;;;;;36.08;32.45;;;3.40;92.30;;;;;;4971097;28;20214;-76
2020/12/01 03:56:19;;;;;;;35.47;31.40;;;3.40;93.40;;;;;;4964819;28;20593;-76
2020/12/01 03:58:45;;;;;;;34.88;31.17;;;3.50;92.90;;;;;;4969707;28;20210;-76
2020/12/01 04:01:11;;;;;;;36.40;32.60;;;3.50;92.40;;;;;;4962399;28;20198;-76
2020/12/01 04:03:38;;;;;;;33.75;30.50;;;3.60;92.10;;;;;;4967191;28;20289;-76
2020/12/01 04:06:04;;;;;;;35.90;32.13;;;3.60;91.90;;;;;;4963448;28;20223;-76
2020/12/01 04:08:31;;;;;;;672.45;121.35;;;3.60;91.80;;;;;;4964455;28;20209;-76
2020/12/01 04:11:00;;;;;;;34.03;30.65;;;3.60;92.30;;;;;;4966382;28;20228;-77
2020/12/01 04:13:27;;;;;;;34.60;30.98;;;3.60;92.60;;;;;;4969666;28;20203;-77
2020/12/01 04:15:53;;;;;;;36.97;33.20;;;3.60;92.70;;;;;;4967461;28;20212;-76
2020/12/01 04:18:19;;;;;;;36.88;33.28;;;3.60;92.30;;;;;;4964286;28;20198;-76
2020/12/01 04:20:46;;;;;;;36.10;32.35;;;3.60;92.60;;;;;;4966507;28;20226;-78
2020/12/01 04:23:12;;;;;;;34.08;30.85;;;3.60;92.30;;;;;;4969371;28;20195;-76
2020/12/01 04:25:38;;;;;;;33.53;30.20;;;3.60;92.30;;;;;;4960600;28;20237;-76
2020/12/01 04:28:06;;;;;;;33.60;30.15;;;3.50;92.30;;;;;;4969085;28;20211;-76
2020/12/01 04:30:32;;;;;;;43.55;32.33;;;3.50;92.50;;;;;;4967672;28;20693;-76
2020/12/01 04:32:59;;;;;;;35.15;31.55;;;3.70;92.30;;;;;;4970762;28;20209;-76
2020/12/01 04:35:27;;;;;;;231.90;52.17;;;3.60;92.80;;;;;;4961456;28;20194;-77
2020/12/01 04:37:55;;;;;;;34.50;31.10;;;3.70;92.70;;;;;;4966372;28;20196;-76
2020/12/01 04:40:24;;;;;;;79.40;35.03;;;3.60;92.80;;;;;;4960125;28;20290;-76
2020/12/01 04:42:57;;;;;;;34.85;31.10;;;3.60;94.00;;;;;;4963431;28;20210;-76
2020/12/01 04:45:24;;;;;;;33.75;30.52;;;3.70;93.70;;;;;;4968727;28;20209;-76
2020/12/01 04:47:57;;;;;;;35.05;31.75;;;3.70;92.80;;;;;;4968294;28;20194;-76
2020/12/01 04:50:32;;;;;;;35.28;31.83;;;3.60;92.90;;;;;;4971090;28;20195;-76
2020/12/01 04:53:39;;;;;;;214.18;46.63;;;3.70;92.50;;;;;;4968329;28;20649;-76
2020/12/01 04:56:33;;;;;;;33.55;30.30;;;3.70;93.70;;;;;;4968854;28;20969;-77
2020/12/01 04:59:15;;;;;;;528.47;86.50;;;3.70;93.70;;;;;;4967384;28;20204;-77
2020/12/01 05:02:11;;;;;;;32.10;29.00;;;3.70;94.10;;;;;;4963355;28;20191;-76
2020/12/01 05:04:45;;;;;;;35.00;31.40;;;3.80;94.10;;;;;;4963472;28;20203;-76
2020/12/01 05:07:28;;;;;;;36.30;32.55;;;3.80;93.20;;;;;;4973973;28;20219;-76
2020/12/01 05:09:58;;;;;;;33.42;30.17;;;3.80;93.40;;;;;;4968097;28;20331;-78
2020/12/01 05:12:31;;;;;;;32.85;29.98;;;3.80;92.80;;;;;;4971709;28;20979;-76
2020/12/01 05:15:01;;;;;;;35.08;31.40;;;3.80;92.60;;;;;;4971367;28;20720;-79
2020/12/01 05:18:15;;;;;;;35.22;31.80;;;3.70;92.50;;;;;;4967963;28;20236;-76
2020/12/01 05:20:46;;;;;;;33.92;30.60;;;3.60;92.90;;;;;;4969660;28;20203;-80
2020/12/01 05:23:14;;;;;;;35.03;31.42;;;3.50;92.90;;;;;;4972821;28;20195;-77
2020/12/01 05:25:40;;;;;;;34.78;31.58;;;3.60;92.80;;;;;;4969496;28;20223;-76
2020/12/01 05:28:11;;;;;;;34.35;31.00;;;3.60;92.80;;;;;;4969754;28;20207;-76
2020/12/01 05:30:38;;;;;;;33.83;30.48;;;3.60;92.80;;;;;;4968790;28;20206;-76
2020/12/01 05:33:20;;;;;;;33.65;30.48;;;3.50;92.80;;;;;;4968308;28;20195;-74
2020/12/01 05:35:59;;;;;;;36.15;32.85;;;3.60;92.90;;;;;;4964788;28;20467;-76
2020/12/01 05:38:26;;;;;;;35.97;32.72;;;3.70;93.10;;;;;;4972094;28;20549;-76
2020/12/01 05:40:55;;;;;;;35.33;31.70;;;3.70;92.50;;;;;;4973082;28;20665;-76
2020/12/01 05:43:28;;;;;;;34.67;31.38;;;3.60;92.50;;;;;;4970548;28;20202;-76
2020/12/01 05:46:08;;;;;;;35.05;31.85;;;3.50;93.00;;;;;;4969120;28;20211;-77
2020/12/01 05:48:49;;;;;;;34.20;31.10;;;3.50;93.20;;;;;;4972211;28;20209;-76
2020/12/01 05:51:23;;;;;;;1436.15;203.93;;;3.50;93.20;;;;;;4969559;28;20249;-77
2020/12/01 05:53:56;;;;;;;34.88;31.52;;;3.50;93.70;;;;;;4966925;28;20234;-77
2020/12/01 05:56:22;;;;;;;34.38;31.08;;;3.50;94.00;;;;;;4964580;28;20311;-77
2020/12/01 05:58:56;;;;;;;35.22;31.58;;;3.60;94.60;;;;;;4968156;28;20898;-77
2020/12/01 06:01:23;;;;;;;34.60;31.45;;;3.50;94.70;;;;;;4971523;28;20318;-76
2020/12/01 06:04:07;;;;;;;34.65;31.35;;;3.50;94.60;;;;;;4969760;28;20204;-76
2020/12/01 06:07:07;;;;;;;31.42;28.13;;;3.60;94.70;;;;;;4964386;28;20223;-77
2020/12/01 06:09:54;;;;;;;33.65;30.40;;;3.60;94.20;;;;;;4963752;28;20210;-78
2020/12/01 06:12:30;;;;;;;31.60;28.77;;;3.60;94.00;;;;;;4972773;28;20221;-78
2020/12/01 06:14:58;;;;;;;32.97;29.98;;;3.60;93.80;;;;;;4968303;28;20203;-78
2020/12/01 06:17:39;;;;;;;32.72;29.80;;;3.70;93.80;;;;;;4968871;28;20227;-77
2020/12/01 06:20:18;;;;;;;34.83;31.60;;;3.70;93.80;;;;;;4966440;28;20203;-78
2020/12/01 06:23:09;;;;;;;35.35;31.73;;;3.70;93.80;;;;;;4959143;28;20690;-77
2020/12/01 06:25:54;;;;;;;31.83;28.65;;;3.70;94.00;;;;;;4968269;28;20212;-76
2020/12/01 06:28:54;;;;;;;31.92;28.52;;;3.70;94.00;;;;;;4965400;28;20673;-75
2020/12/01 06:31:39;;;;;;;32.53;29.15;;;3.70;94.00;;;;;;4971860;28;20249;-76
2020/12/01 06:34:43;;;;;;;32.85;29.88;;;3.70;94.00;;;;;;4964886;28;20207;-76
2020/12/01 06:37:33;;;;;;;33.72;30.30;;;3.70;94.10;;;;;;4971415;28;20244;-76
2020/12/01 06:40:28;;;;;;;34.53;31.13;;;3.60;94.40;;;;;;4966059;28;20290;-76
2020/12/01 06:43:02;;;;;;;34.78;31.52;;;3.60;94.40;;;;;;4955664;28;20204;-76
2020/12/01 06:45:33;;;;;;;32.35;29.40;;;3.70;94.40;;;;;;4969494;28;20215;-77
2020/12/01 06:48:05;;;;;;;34.47;31.17;;;3.70;94.30;;;;;;4960084;28;20215;-77
2020/12/01 06:50:34;;;;;;;34.60;31.13;;;3.70;94.30;;;;;;4968935;28;20198;-76
2020/12/01 06:53:04;;;;;;;33.88;30.55;;;3.70;94.30;;;;;;4967012;28;20223;-75
2020/12/01 06:55:51;;;;;;;35.80;32.22;;;3.70;94.40;;;;;;4967954;28;20293;-76
2020/12/01 06:58:34;;;;;;;71.22;35.28;;;3.70;94.40;;;;;;4971369;28;20701;-76
2020/12/01 07:01:27;;;;;;;34.72;31.33;;;3.70;94.70;;;;;;4970216;28;20199;-78
2020/12/01 07:04:22;;;;;;;33.25;30.02;;;3.70;95.40;;;;;;4965329;28;20785;-78
2020/12/01 07:06:51;;;;;;;33.80;30.40;;;3.70;95.20;;;;;;4960222;28;20467;-78
2020/12/01 07:09:20;;;;;;;32.63;29.85;;;3.70;95.10;;;;;;4964632;28;20195;-78
2020/12/01 07:12:04;;;;;;;32.92;29.80;;;3.80;95.00;;;;;;4961277;28;20207;-78
2020/12/01 07:14:40;;;;;;;32.90;29.55;;;3.80;94.90;;;;;;4958506;28;20210;-78
2020/12/01 07:17:28;;;;;;;35.83;32.47;;;3.70;94.90;;;;;;4971012;28;20269;-78
2020/12/01 07:19:58;;;;;;;36.85;33.03;;;3.70;95.00;;;;;;4968125;28;20690;-78
2020/12/01 07:22:35;;;;;;;35.50;31.90;;;3.70;95.00;;;;;;4962998;28;20226;-77
2020/12/01 07:25:10;;;;;;;32.63;29.70;;;3.70;95.00;;;;;;4960060;28;20621;-77
2020/12/01 07:27:51;;;;;;;34.30;30.98;;;3.70;95.10;;;;;;4955956;28;20206;-78
2020/12/01 07:30:19;;;;;;;34.63;31.30;;;3.70;94.90;;;;;;4968035;28;20198;-77
2020/12/01 07:32:50;;;;;;;33.22;29.80;;;3.70;94.90;;;;;;4957348;28;22002;-77
2020/12/01 07:35:34;;;;;;;33.42;30.00;;;3.80;95.00;;;;;;4958142;28;20280;-78
2020/12/01 07:38:08;;;;;;;173.60;46.38;;;3.70;94.90;;;;;;4967970;28;20227;-78
2020/12/01 07:40:45;;;;;;;35.45;31.77;;;3.70;94.80;;;;;;4966252;28;20234;-76
2020/12/01 07:43:15;;;;;;;33.20;29.85;;;3.70;95.00;;;;;;4966059;28;20206;-76
2020/12/01 07:45:41;;;;;;;33.90;30.80;;;3.80;94.90;;;;;;4969745;28;20588;-78
2020/12/01 07:48:14;;;;;;;31.73;28.52;;;3.70;95.00;;;;;;4958623;28;20235;-76
2020/12/01 07:50:41;;;;;;;33.90;30.50;;;3.70;95.30;;;;;;4963584;28;20207;-77
2020/12/01 07:53:09;;;;;;;33.80;30.60;;;3.70;95.30;;;;;;4963766;28;20207;-77
2020/12/01 07:55:40;;;;;;;33.50;30.10;;;3.80;95.40;;;;;;4967432;28;20767;-76
2020/12/01 07:58:15;;;;;;;33.13;29.88;;;3.80;95.00;;;;;;4962716;28;20199;-76
2020/12/01 08:00:47;;;;;;;33.60;30.30;;;3.90;95.60;;;;;;4960770;28;20656;-77
2020/12/01 08:03:16;;;;;;;31.77;28.52;;;3.90;95.10;;;;;;4965782;28;20199;-78
2020/12/01 08:05:42;;;;;;;32.95;29.77;;;4.00;94.80;;;;;;4966128;28;20230;-76
2020/12/01 08:08:15;;;;;;;33.20;29.90;;;3.90;94.60;;;;;;4963806;28;20206;-76
2020/12/01 08:10:42;;;;;;;33.60;30.70;;;3.90;94.60;;;;;;4963652;28;20203;-77
2020/12/01 08:13:09;;;;;;;32.13;29.13;;;4.00;94.60;;;;;;4964972;28;20225;-76
2020/12/01 08:15:35;;;;;;;287.20;53.63;;;3.90;94.30;;;;;;4965655;28;20233;-77
2020/12/01 08:18:05;;;;;;;129.80;36.70;;;4.00;96.10;;;;;;4963356;28;20209;-76
2020/12/01 08:20:32;;;;;;;29.20;26.45;;;3.90;96.10;;;;;;4962821;28;20195;-77
2020/12/01 08:23:07;;;;;;;28.50;25.90;;;3.90;95.90;;;;;;4970215;28;20199;-77
2020/12/01 08:25:35;;;;;;;28.60;26.20;;;4.00;95.60;;;;;;4959900;28;20214;-76
2020/12/01 08:28:16;;;;;;;26.02;23.85;;;4.00;95.20;;;;;;4964736;28;20207;-77
2020/12/01 08:30:59;;;;;;;27.73;25.30;;;4.00;94.60;;;;;;4965299;28;20200;-76
2020/12/01 08:33:47;;;;;;;29.63;26.92;;;4.00;94.80;;;;;;4953876;28;20680;-75
2020/12/01 08:36:24;;;;;;;29.00;26.27;;;4.00;94.80;;;;;;4966578;28;20223;-76
2020/12/01 08:39:27;;;;;;;26.77;24.60;;;4.00;94.50;;;;;;4957307;28;20205;-76
2020/12/01 08:42:08;;;;;;;26.02;23.90;;;4.10;93.90;;;;;;4967273;28;20191;-76
2020/12/01 08:44:39;;;;;;;27.75;25.42;;;4.00;93.50;;;;;;4964924;28;20200;-76
2020/12/01 08:47:07;;;;;;;28.98;26.33;;;4.10;93.50;;;;;;4957953;28;20235;-76
2020/12/01 08:49:43;;;;;;;26.73;24.38;;;4.10;93.40;;;;;;4968206;28;20210;-76
2020/12/01 08:52:34;;;;;;;28.17;25.63;;;4.00;93.60;;;;;;4967440;28;20219;-76
2020/12/01 08:55:15;;;;;;;27.05;24.35;;;4.10;93.70;;;;;;4958454;28;20191;-76
2020/12/01 08:57:42;;;;;;;26.92;24.40;;;4.10;93.40;;;;;;4957911;28;20326;-76
2020/12/01 09:00:12;;;;;;;26.60;24.40;;;4.10;93.50;;;;;;4955829;28;20490;-76
2020/12/01 09:02:40;;;;;;;27.05;24.90;;;4.20;94.10;;;;;;4960193;28;20311;-76
2020/12/01 09:05:21;;;;;;;28.10;25.83;;;4.10;93.90;;;;;;4966306;28;20225;-76
2020/12/01 09:07:50;;;;;;;27.15;24.75;;;4.20;93.80;;;;;;4958696;28;20200;-76
2020/12/01 09:10:24;;;;;;;925.75;122.25;;;4.30;93.50;;;;;;4962643;28;20254;-75
2020/12/01 09:13:09;;;;;;;192.38;37.55;;;4.30;96.00;;;;;;4962425;28;20302;-75
2020/12/01 09:15:48;;;;;;;25.88;23.67;;;4.40;97.30;;;;;;4959266;28;20224;-76
2020/12/01 09:18:40;;;;;;;27.15;24.73;;;4.30;96.00;;;;;;4954903;28;20196;-76
2020/12/01 09:24:02;;;;;;;261.95;45.72;;;4.50;95.30;;;;;;4962758;28;20227;-76
2020/12/01 09:26:29;;;;;;;25.13;23.13;;;4.40;98.50;;;;;;4965927;28;20689;-76
2020/12/01 09:28:56;;;;;;;23.30;21.20;;;4.40;96.80;;;;;;4960108;28;20294;-76
2020/12/01 09:31:25;;;;;;;23.50;21.55;;;4.50;96.30;;;;;;4965685;28;20225;-76
2020/12/01 09:33:54;;;;;;;132.35;31.17;;;4.60;95.70;;;;;;4962546;28;20195;-75
2020/12/01 09:36:23;;;;;;;23.80;21.85;;;4.60;95.00;;;;;;4961844;28;20241;-76
2020/12/01 09:38:50;;;;;;;24.92;22.77;;;4.60;94.90;;;;;;4969401;28;20218;-76
2020/12/01 09:41:18;;;;;;;25.05;22.40;;;4.60;94.10;;;;;;4966630;28;20198;-77
2020/12/01 09:43:49;;;;;;;23.88;21.92;;;4.70;93.60;;;;;;4955024;28;20204;-78
2020/12/01 09:46:20;;;;;;;25.25;23.13;;;4.70;93.30;;;;;;4966439;28;20215;-77
2020/12/01 09:48:47;;;;;;;22.17;20.63;;;4.70;92.90;;;;;;4963288;28;20223;-76
2020/12/01 09:51:15;;;;;;;25.20;23.40;;;4.70;92.70;;;;;;4963027;28;20250;-76
2020/12/01 09:53:51;;;;;;;24.83;23.02;;;4.70;92.50;;;;;;4971865;28;20259;-76
2020/12/01 09:56:36;;;;;;;881.95;111.13;;;4.60;92.60;;;;;;4963474;28;20225;-76
2020/12/01 10:05:04;;;;;;;25.88;23.42;;;4.80;93.50;;;;;;4973037;28;20562;-78
2020/12/01 10:07:41;;;;;;;21.50;20.10;;;4.80;93.30;;;;;;4965777;28;20307;-77
2020/12/01 10:10:23;;;;;;;203.25;37.65;;;4.80;95.20;;;;;;4963050;28;20199;-77
2020/12/01 10:12:55;;;;;;;1999.90;445.38;;;4.80;96.70;;;;;;4961292;28;20239;-76
2020/12/01 10:15:49;;;;;;;1171.53;159.80;;;4.80;99.40;;;;;;4959268;28;20505;-76
2020/12/01 10:27:03;;;;;;;26.27;24.08;;;4.80;95.60;;;;;;4963710;28;20697;-76
2020/12/01 10:32:41;;;;;;;23.52;21.67;;;4.80;93.80;;;;;;4956380;28;20228;-77
2020/12/01 10:35:19;;;;;;;23.27;21.65;;;4.80;93.90;;;;;;4957817;28;20203;-76
2020/12/01 10:37:45;;;;;;;21.63;20.02;;;4.80;91.90;;;;;;4967242;28;20199;-77
2020/12/01 10:40:12;;;;;;;22.73;21.20;;;4.80;92.30;;;;;;4962556;28;20202;-76
2020/12/01 10:42:39;;;;;;;22.23;20.52;;;4.80;92.40;;;;;;4959150;28;20199;-76
2020/12/01 10:45:05;;;;;;;23.23;21.77;;;4.90;91.70;;;;;;4967293;28;20211;-77
2020/12/01 10:47:32;;;;;;;22.45;20.55;;;4.80;91.10;;;;;;4963369;28;20316;-77
2020/12/01 10:49:58;;;;;;;20.27;19.08;;;4.80;91.00;;;;;;4970238;28;20207;-77
2020/12/01 10:52:25;;;;;;;18.50;17.25;;;4.70;91.00;;;;;;4971598;28;20230;-77
2020/12/01 10:54:51;;;;;;;21.13;19.65;;;4.80;89.90;;;;;;4968467;28;20200;-77
2020/12/01 10:57:17;;;;;;;1999.90;512.90;;;4.70;89.90;;;;;;4963536;28;20300;-77
2020/12/01 10:59:45;;;;;;;20.25;18.75;;;4.60;96.60;;;;;;4964421;28;20220;-77
2020/12/01 11:02:11;;;;;;;20.23;18.67;;;4.60;95.80;;;;;;4956001;28;20553;-76
2020/12/01 11:04:37;;;;;;;24.67;21.83;;;4.70;95.30;;;;;;4964809;28;20201;-77
2020/12/01 11:07:04;;;;;;;156.35;31.13;;;4.70;94.40;;;;;;4972155;28;20234;-77
2020/12/01 11:09:30;;;;;;;24.30;20.80;;;4.80;94.30;;;;;;4965181;28;20693;-76
2020/12/01 11:11:56;;;;;;;21.83;19.85;;;4.80;95.60;;;;;;4968712;28;20224;-77
2020/12/01 11:14:23;;;;;;;21.40;19.38;;;4.80;94.40;;;;;;4965653;28;20205;-76
2020/12/01 11:16:50;;;;;;;22.58;20.58;;;4.70;93.70;;;;;;4967016;28;20212;-76
2020/12/01 11:19:16;;;;;;;21.67;19.95;;;4.80;93.60;;;;;;4953570;28;20215;-76
2020/12/01 11:21:43;;;;;;;22.17;20.20;;;4.90;93.30;;;;;;4969005;28;20200;-76
2020/12/01 11:24:09;;;;;;;127.65;29.02;;;5.00;92.40;;;;;;4965167;28;20215;-76
2020/12/01 11:26:36;;;;;;;21.55;19.98;;;5.00;92.70;;;;;;4967573;28;20226;-77
2020/12/01 11:29:03;;;;;;;23.67;21.92;;;5.00;93.30;;;;;;4968772;28;20217;-77
2020/12/01 11:31:32;;;;;;;21.08;19.58;;;5.00;92.40;;;;;;4965290;28;20196;-78
2020/12/01 11:34:03;;;;;;;21.75;20.33;;;5.00;92.60;;;;;;4962687;28;20205;-76
2020/12/01 11:36:30;;;;;;;65.32;25.30;;;5.00;91.60;;;;;;4968237;28;20316;-76
2020/12/01 11:38:56;;;;;;;97.63;31.35;;;4.90;91.20;;;;;;4968907;28;20734;-74
2020/12/01 11:41:23;;;;;;;28.48;26.38;;;4.80;90.80;;;;;;4971714;28;20237;-72
2020/12/01 11:43:50;;;;;;;50.40;25.33;;;4.80;92.30;;;;;;4965076;28;20308;-74
2020/12/01 11:46:16;;;;;;;159.80;34.60;;;4.80;93.50;;;;;;4964182;28;20220;-74
2020/12/01 11:48:43;;;;;;;140.60;30.63;;;4.80;92.80;;;;;;4968270;28;20199;-72
2020/12/01 11:51:11;;;;;;;21.95;20.50;;;4.90;92.60;;;;;;4967176;28;20200;-74
2020/12/01 11:53:38;;;;;;;28.40;26.00;;;4.90;94.40;;;;;;4962280;28;20331;-74
2020/12/01 11:56:04;;;;;;;34.75;31.63;;;4.90;92.70;;;;;;4957736;28;20233;-75
2020/12/01 11:58:30;;;;;;;28.10;25.60;;;4.80;92.40;;;;;;4960389;28;20200;-74
2020/12/01 12:00:57;;;;;;;25.67;23.80;;;4.80;92.20;;;;;;4960793;28;20653;-73
2020/12/01 12:03:23;;;;;;;24.00;22.05;;;4.80;92.00;;;;;;4960778;28;20196;-76
2020/12/01 12:05:49;;;;;;;23.75;22.05;;;4.80;91.90;;;;;;4971356;28;20307;-75
2020/12/01 12:08:17;;;;;;;833.42;109.13;;;4.90;91.70;;;;;;4964274;28;20202;-76
2020/12/01 12:10:43;;;;;;;208.75;39.55;;;5.00;92.90;;;;;;4966493;28;20214;-76
2020/12/01 12:13:10;;;;;;;22.40;20.83;;;5.10;93.10;;;;;;4965600;28;20221;-76
2020/12/01 12:15:36;;;;;;;24.00;22.10;;;5.10;92.70;;;;;;4964650;28;20217;-75
2020/12/01 12:18:29;;;;;;;25.38;23.67;;;5.10;92.10;;;;;;4963706;28;21283;-76
2020/12/01 12:20:55;;;;;;;23.38;21.77;;;5.20;91.60;;;;;;4968385;28;20209;-75
2020/12/01 12:23:24;;;;;;;23.25;21.58;;;5.30;91.20;;;;;;4962871;28;20200;-73
2020/12/01 12:25:51;;;;;;;24.83;22.73;;;5.30;90.70;;;;;;4965424;28;20581;-73
2020/12/01 12:28:18;;;;;;;777.63;99.45;;;5.10;89.60;;;;;;4965493;28;20463;-74
2020/12/01 12:30:46;;;;;;;23.15;21.70;;;5.20;90.40;;;;;;4966134;28;20192;-74
2020/12/01 12:33:13;;;;;;;43.70;25.65;;;5.20;90.20;;;;;;4960976;28;20246;-72
2020/12/01 12:35:42;;;;;;;269.70;46.40;;;5.20;91.70;;;;;;4966995;28;20226;-74
2020/12/01 12:38:08;;;;;;;1354.38;174.32;;;5.10;91.30;;;;;;4969674;28;20201;-76
2020/12/01 12:40:36;;;;;;;634.95;78.22;;;5.10;93.40;;;;;;4970131;28;20208;-74
2020/12/01 12:43:03;;;;;;;24.77;22.92;;;5.20;92.80;;;;;;4968009;28;20593;-74
2020/12/01 12:45:30;;;;;;;24.60;22.70;;;5.20;92.50;;;;;;4959868;28;20246;-74
2020/12/01 12:47:57;;;;;;;25.55;23.30;;;5.20;92.70;;;;;;4956324;28;20199;-74
2020/12/01 12:50:23;;;;;;;27.73;25.00;;;5.30;91.90;;;;;;4957977;28;20212;-74
2020/12/01 12:52:50;;;;;;;30.55;27.85;;;5.30;91.60;;;;;;4960946;28;20211;-74
2020/12/01 12:55:16;;;;;;;30.23;27.77;;;5.30;91.60;;;;;;4962988;28;20192;-74
2020/12/01 12:57:43;;;;;;;28.75;26.25;;;5.30;91.00;;;;;;4961062;28;20219;-77
2020/12/01 13:00:11;;;;;;;28.17;26.17;;;5.30;91.30;;;;;;4955951;28;20287;-74
2020/12/01 13:02:37;;;;;;;176.07;35.83;;;5.30;91.00;;;;;;4967124;28;20204;-77
2020/12/01 13:05:04;;;;;;;809.53;107.35;;;5.30;94.10;;;;;;4970121;28;20201;-74
2020/12/01 13:07:30;;;;;;;1484.97;194.90;;;5.40;93.00;;;;;;4963847;28;20720;-74
2020/12/01 13:09:57;;;;;;;24.25;22.35;;;5.40;95.40;;;;;;4963095;28;20203;-75
2020/12/01 13:12:23;;;;;;;1974.22;298.02;;;5.60;93.70;;;;;;4972043;28;20282;-77
2020/12/01 13:14:50;;;;;;;99.50;31.33;;;5.50;92.20;;;;;;4972892;28;20205;-74